createdAt,value
2022-12-31T00:00:22.082Z,12.50
2022-12-31T00:02:49.178Z,12.50
2022-12-31T00:05:16.234Z,12.60
2022-12-31T00:10:09.441Z,12.60
2022-12-31T00:12:36.356Z,12.70
2022-12-31T00:15:03.625Z,12.80
2022-12-31T00:17:30.701Z,12.80
2022-12-31T00:19:57.575Z,12.80
2022-12-31T00:22:24.813Z,12.80
2022-12-31T00:24:51.842Z,12.80
2022-12-31T00:27:18.727Z,12.80
2022-12-31T00:29:45.762Z,12.80
2022-12-31T00:32:12.660Z,12.90
2022-12-31T00:34:39.706Z,12.90
2022-12-31T00:37:06.602Z,12.90
2022-12-31T00:39:33.926Z,12.90
2022-12-31T00:42:00.820Z,12.80
2022-12-31T00:44:27.827Z,13.00
2022-12-31T00:46:54.883Z,13.00
2022-12-31T00:49:21.893Z,13.00
2022-12-31T00:51:49.595Z,13.10
2022-12-31T00:54:16.553Z,13.00
2022-12-31T00:56:43.703Z,13.00
2022-12-31T00:59:10.686Z,13.00
2022-12-31T01:01:40.284Z,12.90
2022-12-31T01:04:17.667Z,12.90
2022-12-31T01:06:45.400Z,12.80
2022-12-31T01:09:15.162Z,12.80
2022-12-31T01:11:42.466Z,12.80
2022-12-31T01:14:16.613Z,12.80
2022-12-31T01:16:47.103Z,12.60
2022-12-31T01:19:20.733Z,12.80
2022-12-31T01:21:49.279Z,12.80
2022-12-31T01:24:16.500Z,12.80
2022-12-31T01:26:43.921Z,12.80
2022-12-31T01:29:11.743Z,12.80
2022-12-31T01:31:39.738Z,12.90
2022-12-31T01:34:08.490Z,12.80
2022-12-31T01:36:37.209Z,12.90
2022-12-31T01:39:07.081Z,12.90
2022-12-31T01:41:38.321Z,12.90
2022-12-31T01:44:11.415Z,12.90
2022-12-31T01:46:53.846Z,13.00
2022-12-31T01:49:44.686Z,13.00
2022-12-31T01:52:39.326Z,13.30
2022-12-31T01:55:25.851Z,13.00
2022-12-31T01:57:58.030Z,13.00
2022-12-31T02:00:25.489Z,13.10
2022-12-31T02:02:52.971Z,13.10
2022-12-31T02:05:31.036Z,13.10
2022-12-31T02:07:59.097Z,13.10
2022-12-31T02:10:26.145Z,13.20
2022-12-31T02:12:53.394Z,13.20
2022-12-31T02:15:30.073Z,13.40
2022-12-31T02:18:21.823Z,13.30
2022-12-31T02:21:24.585Z,13.30
2022-12-31T02:24:10.359Z,13.30
2022-12-31T02:27:07.629Z,13.40
2022-12-31T02:29:52.124Z,13.40
2022-12-31T02:32:33.131Z,13.40
2022-12-31T02:35:27.589Z,13.50
2022-12-31T02:38:03.308Z,13.50
2022-12-31T02:40:33.727Z,13.50
2022-12-31T02:43:00.610Z,13.50
2022-12-31T02:45:34.994Z,13.60
2022-12-31T02:48:13.186Z,13.50
2022-12-31T02:51:08.811Z,13.50
2022-12-31T02:53:53.440Z,13.50
2022-12-31T02:57:20.555Z,13.50
2022-12-31T03:00:16.887Z,13.50
2022-12-31T03:02:47.154Z,13.60
2022-12-31T03:05:17.737Z,13.60
2022-12-31T03:07:45.621Z,13.50
2022-12-31T03:10:12.861Z,13.60
2022-12-31T03:12:46.751Z,13.50
2022-12-31T03:15:28.408Z,13.60
2022-12-31T03:18:13.104Z,13.60
2022-12-31T03:21:05.129Z,13.60
2022-12-31T03:23:42.289Z,13.60
2022-12-31T03:26:12.155Z,13.70
2022-12-31T03:28:43.081Z,13.70
2022-12-31T03:31:10.118Z,13.90
2022-12-31T03:33:40.403Z,13.80
2022-12-31T03:36:15.244Z,13.90
2022-12-31T03:38:42.455Z,13.90
2022-12-31T03:41:12.408Z,14.20
2022-12-31T03:43:39.276Z,14.10
2022-12-31T03:46:06.459Z,14.10
2022-12-31T03:48:33.473Z,14.10
2022-12-31T03:51:00.672Z,14.20
2022-12-31T03:53:27.706Z,14.30
2022-12-31T03:55:55.498Z,14.50
2022-12-31T03:58:22.977Z,14.30
2022-12-31T04:00:50.783Z,14.40
2022-12-31T04:03:18.191Z,14.40
2022-12-31T04:05:45.195Z,14.50
2022-12-31T04:08:12.408Z,14.50
2022-12-31T04:10:39.313Z,14.50
2022-12-31T04:13:06.491Z,14.50
2022-12-31T04:15:33.358Z,14.60
2022-12-31T04:18:00.597Z,14.80
2022-12-31T04:20:27.641Z,14.90
2022-12-31T04:22:54.474Z,14.70
2022-12-31T04:25:21.746Z,14.70
2022-12-31T04:27:48.795Z,14.70
2022-12-31T04:30:15.895Z,14.80
2022-12-31T04:32:43.105Z,14.90
2022-12-31T04:35:11.498Z,14.90
2022-12-31T04:37:38.614Z,15.10
2022-12-31T04:40:07.312Z,15.00
2022-12-31T04:42:35.608Z,15.00
2022-12-31T04:45:02.800Z,15.00
2022-12-31T04:47:29.823Z,15.10
2022-12-31T04:49:57.149Z,15.10
2022-12-31T04:52:24.043Z,15.10
2022-12-31T04:54:51.240Z,15.20
2022-12-31T04:57:18.298Z,15.20
2022-12-31T04:59:45.166Z,15.20
2022-12-31T05:02:12.264Z,15.20
2022-12-31T05:04:39.414Z,15.20
2022-12-31T05:07:06.464Z,15.20
2022-12-31T05:09:33.326Z,15.20
2022-12-31T05:12:00.787Z,15.30
2022-12-31T05:14:27.857Z,15.30
2022-12-31T05:16:54.874Z,15.20
2022-12-31T05:19:21.750Z,15.30
2022-12-31T05:22:08.700Z,15.30
2022-12-31T05:24:35.642Z,15.40
2022-12-31T05:27:02.619Z,15.40
2022-12-31T05:29:29.979Z,15.40
2022-12-31T05:31:56.820Z,15.70
2022-12-31T05:34:24.133Z,15.50
2022-12-31T05:36:51.141Z,15.60
2022-12-31T05:39:18.000Z,15.60
2022-12-31T05:41:44.978Z,15.70
2022-12-31T05:44:12.126Z,15.70
2022-12-31T05:46:39.122Z,15.60
2022-12-31T05:49:06.118Z,15.60
2022-12-31T05:51:32.963Z,15.80
2022-12-31T05:54:00.031Z,15.40
2022-12-31T05:56:26.842Z,15.50
2022-12-31T05:58:54.132Z,15.50
2022-12-31T06:01:21.035Z,15.50
2022-12-31T06:03:48.648Z,15.40
2022-12-31T06:06:15.538Z,15.40
2022-12-31T06:08:42.449Z,15.30
2022-12-31T06:11:09.299Z,15.30
2022-12-31T06:13:36.398Z,15.20
2022-12-31T06:16:08.655Z,15.30
2022-12-31T06:18:35.579Z,15.40
2022-12-31T06:21:04.101Z,15.30
2022-12-31T06:23:31.571Z,15.50
2022-12-31T06:26:03.736Z,15.40
2022-12-31T06:28:30.756Z,15.20
2022-12-31T06:31:03.180Z,15.40
2022-12-31T06:33:30.743Z,15.20
2022-12-31T06:36:04.434Z,15.20
2022-12-31T06:38:34.383Z,15.40
2022-12-31T06:41:11.640Z,15.40
2022-12-31T06:43:40.240Z,15.30
2022-12-31T06:46:14.753Z,15.20
2022-12-31T06:48:44.574Z,15.20
2022-12-31T06:51:19.576Z,15.20
2022-12-31T06:53:49.351Z,15.30
2022-12-31T06:56:33.112Z,15.30
2022-12-31T06:59:02.331Z,15.30
2022-12-31T07:01:47.008Z,15.40
2022-12-31T07:04:57.227Z,15.40
2022-12-31T07:08:10.488Z,15.40
2022-12-31T07:11:05.660Z,15.50
2022-12-31T07:13:32.504Z,15.50
2022-12-31T07:16:27.981Z,15.60
2022-12-31T07:19:42.755Z,15.60
2022-12-31T07:22:16.113Z,15.70
2022-12-31T07:24:44.517Z,15.70
2022-12-31T07:27:50.367Z,15.80
2022-12-31T07:30:46.769Z,15.80
2022-12-31T07:33:28.591Z,15.90
2022-12-31T07:36:09.921Z,16.00
2022-12-31T07:38:58.149Z,16.10
2022-12-31T07:41:46.648Z,16.10
2022-12-31T07:44:44.423Z,16.20
2022-12-31T07:47:24.540Z,16.30
2022-12-31T07:49:52.731Z,16.40
2022-12-31T07:52:20.955Z,16.50
2022-12-31T07:54:48.291Z,16.50
2022-12-31T07:57:18.210Z,16.40
2022-12-31T08:00:06.203Z,16.70
2022-12-31T08:03:20.850Z,16.70
2022-12-31T08:06:36.768Z,16.80
2022-12-31T08:09:44.206Z,16.90
2022-12-31T08:12:11.431Z,16.90
2022-12-31T08:14:45.651Z,17.10
2022-12-31T08:17:15.522Z,17.10
2022-12-31T08:19:43.767Z,17.20
2022-12-31T08:22:58.562Z,17.30
2022-12-31T08:25:34.743Z,17.30
2022-12-31T08:28:16.642Z,17.40
2022-12-31T08:31:02.229Z,17.50
2022-12-31T08:33:59.376Z,17.60
2022-12-31T08:37:09.354Z,17.60
2022-12-31T08:39:45.030Z,17.60
2022-12-31T08:42:32.696Z,17.70
2022-12-31T08:45:37.795Z,17.70
2022-12-31T08:48:34.786Z,17.80
2022-12-31T08:51:01.943Z,17.80
2022-12-31T08:53:29.514Z,17.90
2022-12-31T08:56:07.444Z,17.90
2022-12-31T08:58:55.743Z,18.00
2022-12-31T09:01:27.044Z,18.00
2022-12-31T09:04:03.413Z,18.40
2022-12-31T09:06:36.544Z,18.10
2022-12-31T09:09:12.411Z,18.20
2022-12-31T09:12:14.530Z,18.30
2022-12-31T09:14:47.667Z,18.40
2022-12-31T09:17:50.019Z,18.50
2022-12-31T09:20:42.469Z,18.60
2022-12-31T09:23:12.810Z,18.60
2022-12-31T09:26:05.124Z,18.60
2022-12-31T09:28:55.775Z,18.70
2022-12-31T09:31:49.434Z,18.80
2022-12-31T09:34:45.374Z,18.90
2022-12-31T09:37:20.819Z,19.10
2022-12-31T09:39:48.930Z,19.40
2022-12-31T09:42:56.786Z,19.70
2022-12-31T09:45:57.641Z,20.00
2022-12-31T09:48:58.763Z,20.30
2022-12-31T09:51:45.124Z,20.70
2022-12-31T09:54:27.034Z,20.90
2022-12-31T09:57:31.454Z,21.10
2022-12-31T10:00:15.728Z,21.30
2022-12-31T10:03:16.724Z,21.50
2022-12-31T10:06:23.498Z,21.70
2022-12-31T10:09:42.966Z,22.00
2022-12-31T10:12:33.493Z,22.30
2022-12-31T10:15:24.044Z,22.50
2022-12-31T10:18:35.882Z,22.50
2022-12-31T10:21:33.593Z,22.50
2022-12-31T10:24:27.955Z,22.40
2022-12-31T10:27:17.686Z,22.40
2022-12-31T10:30:13.199Z,22.20
2022-12-31T10:33:41.140Z,22.20
2022-12-31T10:36:29.730Z,22.20
2022-12-31T10:39:45.574Z,22.10
2022-12-31T10:42:33.415Z,22.00
2022-12-31T10:45:30.867Z,21.90
2022-12-31T10:48:16.598Z,21.80
2022-12-31T10:51:30.124Z,21.70
2022-12-31T10:54:40.290Z,21.70
2022-12-31T10:57:47.321Z,21.60
2022-12-31T11:00:22.984Z,21.50
2022-12-31T11:03:31.056Z,21.40
2022-12-31T11:06:30.135Z,21.30
2022-12-31T11:09:14.871Z,21.30
2022-12-31T11:11:50.520Z,21.30
2022-12-31T11:15:07.938Z,21.20
2022-12-31T11:17:37.695Z,21.10
2022-12-31T11:21:03.251Z,20.90
2022-12-31T11:24:07.607Z,21.00
2022-12-31T11:26:58.734Z,20.90
2022-12-31T11:30:03.447Z,20.90
2022-12-31T11:32:56.514Z,20.80
2022-12-31T11:35:41.789Z,20.80
2022-12-31T11:38:36.267Z,20.90
2022-12-31T11:41:16.723Z,20.90
2022-12-31T11:44:11.257Z,21.10
2022-12-31T11:47:30.079Z,21.00
2022-12-31T11:50:38.522Z,21.00
2022-12-31T11:53:25.805Z,21.10
2022-12-31T11:56:07.737Z,21.10
2022-12-31T11:58:35.051Z,21.20
2022-12-31T12:01:34.237Z,21.40
2022-12-31T12:04:02.171Z,21.30
2022-12-31T12:06:32.464Z,21.40
2022-12-31T12:09:06.666Z,21.40
2022-12-31T12:11:38.716Z,21.40
2022-12-31T12:14:44.625Z,21.50
2022-12-31T12:17:23.921Z,21.50
2022-12-31T12:19:55.301Z,21.60
2022-12-31T12:22:25.593Z,21.50
2022-12-31T12:25:07.219Z,21.60
2022-12-31T12:27:36.080Z,21.60
2022-12-31T12:30:25.043Z,21.70
2022-12-31T12:33:01.790Z,21.70
2022-12-31T12:35:35.120Z,21.70
2022-12-31T12:38:12.222Z,21.80
2022-12-31T12:40:40.550Z,22.00
2022-12-31T12:43:24.192Z,21.80
2022-12-31T12:45:52.658Z,21.70
2022-12-31T12:48:34.611Z,21.80
2022-12-31T12:51:17.031Z,21.80
2022-12-31T12:54:10.295Z,21.80
2022-12-31T12:56:46.335Z,21.80
2022-12-31T13:00:09.948Z,21.80
2022-12-31T13:03:23.400Z,21.80
2022-12-31T13:06:26.837Z,21.80
2022-12-31T13:09:23.468Z,21.80
2022-12-31T13:12:16.952Z,21.80
2022-12-31T13:15:18.929Z,21.80
2022-12-31T13:18:02.066Z,21.80
2022-12-31T13:20:41.955Z,21.80
2022-12-31T13:23:28.768Z,21.80
2022-12-31T13:26:26.032Z,21.80
2022-12-31T13:28:53.744Z,21.80
2022-12-31T13:31:30.554Z,21.80
2022-12-31T13:34:05.356Z,21.80
2022-12-31T13:36:35.577Z,21.80
2022-12-31T13:39:14.484Z,21.80
2022-12-31T13:41:52.756Z,21.80
2022-12-31T13:44:55.118Z,21.80
2022-12-31T13:47:46.705Z,21.80
2022-12-31T13:50:27.056Z,21.80
2022-12-31T13:52:58.005Z,21.80
2022-12-31T13:55:48.064Z,21.80
2022-12-31T13:58:36.117Z,21.80
2022-12-31T14:01:16.355Z,21.80
2022-12-31T14:04:12.206Z,21.80
2022-12-31T14:07:18.736Z,21.80
2022-12-31T14:09:46.981Z,21.80
2022-12-31T14:12:40.704Z,21.80
2022-12-31T14:15:20.451Z,21.80
2022-12-31T14:18:10.086Z,21.80
2022-12-31T14:20:53.293Z,21.80
2022-12-31T14:23:49.140Z,21.70
2022-12-31T14:26:41.845Z,21.60
2022-12-31T14:29:12.137Z,21.50
2022-12-31T14:32:08.974Z,21.50
2022-12-31T14:34:51.673Z,21.40
2022-12-31T14:38:01.913Z,21.40
2022-12-31T14:40:42.135Z,21.40
2022-12-31T14:43:50.120Z,21.50
2022-12-31T14:46:43.447Z,21.40
2022-12-31T14:49:45.420Z,21.50
2022-12-31T14:52:25.010Z,21.50
2022-12-31T14:55:35.430Z,21.50
2022-12-31T14:58:28.918Z,21.50
2022-12-31T15:00:59.546Z,21.50
2022-12-31T15:03:45.101Z,21.50
2022-12-31T15:06:34.281Z,21.50
2022-12-31T15:09:20.385Z,21.40
2022-12-31T15:12:02.557Z,21.40
2022-12-31T15:14:37.920Z,21.40
2022-12-31T15:17:56.058Z,21.30
2022-12-31T15:20:44.188Z,21.30
2022-12-31T15:23:35.588Z,21.30
2022-12-31T15:26:04.523Z,21.20
2022-12-31T15:28:40.890Z,21.20
2022-12-31T15:31:20.314Z,20.90
2022-12-31T15:34:07.123Z,21.10
2022-12-31T15:36:39.340Z,21.10
2022-12-31T15:39:12.365Z,21.00
2022-12-31T15:42:18.546Z,21.00
2022-12-31T15:45:00.795Z,21.00
2022-12-31T15:47:40.294Z,21.00
2022-12-31T15:50:18.183Z,21.00
2022-12-31T15:52:52.002Z,21.00
2022-12-31T15:55:42.957Z,21.00
2022-12-31T15:58:23.250Z,21.00
2022-12-31T16:01:12.440Z,20.90
2022-12-31T16:03:45.518Z,20.90
2022-12-31T16:06:14.842Z,20.90
2022-12-31T16:08:47.126Z,21.00
2022-12-31T16:11:15.065Z,20.80
2022-12-31T16:13:46.652Z,20.90
2022-12-31T16:16:26.827Z,20.80
2022-12-31T16:18:54.646Z,20.80
2022-12-31T16:21:28.874Z,20.90
2022-12-31T16:24:04.711Z,20.80
2022-12-31T16:26:47.971Z,20.80
2022-12-31T16:29:18.456Z,20.80
2022-12-31T16:31:47.115Z,20.80
2022-12-31T16:34:22.137Z,20.80
2022-12-31T16:36:58.295Z,20.70
2022-12-31T16:39:31.603Z,20.70
2022-12-31T16:42:13.771Z,20.70
2022-12-31T16:44:41.919Z,20.70
2022-12-31T16:47:17.121Z,20.70
2022-12-31T16:49:50.013Z,20.70
2022-12-31T16:52:33.142Z,20.70
2022-12-31T16:55:00.409Z,20.70
2022-12-31T16:57:32.230Z,20.80
2022-12-31T17:00:05.372Z,20.80
2022-12-31T17:02:40.375Z,20.80
2022-12-31T17:05:24.648Z,20.80
2022-12-31T17:07:51.824Z,20.80
2022-12-31T17:10:20.770Z,20.90
2022-12-31T17:15:45.103Z,20.90
2022-12-31T17:18:20.778Z,21.00
2022-12-31T17:20:51.596Z,21.00
2022-12-31T17:23:34.991Z,21.00
2022-12-31T17:26:23.339Z,21.00
2022-12-31T17:28:54.050Z,21.10
2022-12-31T17:31:37.023Z,21.10
2022-12-31T17:34:20.560Z,21.10
2022-12-31T17:37:14.480Z,21.20
2022-12-31T17:39:51.420Z,21.20
2022-12-31T17:42:28.197Z,21.20
2022-12-31T17:44:59.005Z,21.30
2022-12-31T17:47:38.459Z,21.30
2022-12-31T17:50:15.011Z,21.30
2022-12-31T17:52:42.163Z,21.30
2022-12-31T17:55:10.710Z,21.30
2022-12-31T17:57:44.931Z,21.40
2022-12-31T18:00:23.038Z,21.40
2022-12-31T18:02:50.615Z,21.30
2022-12-31T18:05:20.766Z,21.30
2022-12-31T18:07:48.671Z,21.30
2022-12-31T18:10:18.867Z,21.30
2022-12-31T18:12:47.657Z,21.30
2022-12-31T18:15:18.353Z,21.20
2022-12-31T18:17:45.612Z,21.30
2022-12-31T18:20:13.206Z,21.30
2022-12-31T18:22:42.376Z,21.30
2022-12-31T18:25:23.180Z,21.20
2022-12-31T18:27:51.751Z,21.20
2022-12-31T18:30:19.341Z,21.20
2022-12-31T18:32:46.753Z,21.20
2022-12-31T18:35:48.583Z,21.10
2022-12-31T18:38:12.218Z,21.10
2022-12-31T18:40:42.699Z,21.10
2022-12-31T18:43:18.351Z,21.10
2022-12-31T18:45:46.852Z,20.80
2022-12-31T18:48:13.848Z,21.10
2022-12-31T18:50:41.499Z,21.00
2022-12-31T18:53:19.881Z,21.00
2022-12-31T18:55:54.259Z,21.00
2022-12-31T18:58:21.990Z,20.90
2022-12-31T19:00:50.516Z,21.00
2022-12-31T19:03:21.748Z,20.90
2022-12-31T19:05:50.730Z,20.80
2022-12-31T19:08:19.071Z,20.90
2022-12-31T19:10:47.263Z,20.70
2022-12-31T19:13:16.748Z,20.70
2022-12-31T19:15:51.233Z,20.60
2022-12-31T19:18:18.975Z,20.60
2022-12-31T19:20:46.120Z,20.50
2022-12-31T19:23:22.349Z,20.50
2022-12-31T19:25:50.167Z,20.40
2022-12-31T19:28:26.242Z,20.40
2022-12-31T19:30:53.580Z,20.40
2022-12-31T19:33:21.161Z,20.30
2022-12-31T19:35:48.517Z,20.30
2022-12-31T19:38:25.301Z,20.20
2022-12-31T19:40:53.830Z,20.20
2022-12-31T19:43:23.003Z,20.20
2022-12-31T19:45:51.792Z,20.20
2022-12-31T19:48:25.953Z,20.10
2022-12-31T19:50:57.436Z,20.20
2022-12-31T19:53:27.173Z,20.10
2022-12-31T19:55:54.211Z,20.10
2022-12-31T19:58:26.608Z,20.00
2022-12-31T20:01:01.947Z,20.00
2022-12-31T20:03:31.635Z,20.00
2022-12-31T20:06:06.140Z,20.00
2022-12-31T20:08:34.669Z,20.00
2022-12-31T20:11:20.360Z,20.00
2022-12-31T20:13:50.253Z,19.90
2022-12-31T20:16:20.465Z,19.90
2022-12-31T20:18:48.251Z,19.90
2022-12-31T20:21:19.558Z,19.90
2022-12-31T20:23:49.560Z,20.00
2022-12-31T20:26:18.125Z,19.90
2022-12-31T20:28:45.912Z,20.00
2022-12-31T20:31:20.105Z,20.00
2022-12-31T20:33:47.239Z,20.00
2022-12-31T20:36:16.844Z,20.00
2022-12-31T20:38:44.338Z,20.00
2022-12-31T20:41:17.631Z,20.00
2022-12-31T20:43:45.759Z,19.90
2022-12-31T20:46:28.669Z,20.00
2022-12-31T20:49:00.012Z,20.00
2022-12-31T20:51:29.236Z,19.90
2022-12-31T20:54:01.653Z,19.90
2022-12-31T20:56:32.421Z,19.90
2022-12-31T20:58:59.897Z,19.90
2022-12-31T21:01:36.347Z,19.90
2022-12-31T21:04:08.812Z,20.00
2022-12-31T21:06:35.996Z,20.00
2022-12-31T21:09:07.061Z,20.00
2022-12-31T21:11:52.897Z,20.00
2022-12-31T21:14:20.384Z,20.10
2022-12-31T21:16:47.480Z,20.10
2022-12-31T21:19:14.480Z,20.00
2022-12-31T21:21:41.438Z,20.10
2022-12-31T21:24:08.671Z,20.10
2022-12-31T21:26:35.792Z,20.20
2022-12-31T21:29:03.118Z,20.20
2022-12-31T21:31:30.163Z,20.20
2022-12-31T21:33:57.411Z,20.20
2022-12-31T21:36:24.331Z,20.20
2022-12-31T21:38:51.732Z,20.20
2022-12-31T21:41:37.175Z,20.20
2022-12-31T21:44:04.256Z,20.50
2022-12-31T21:46:31.401Z,20.20
2022-12-31T21:49:00.593Z,20.30
2022-12-31T21:51:28.648Z,20.30
2022-12-31T21:53:56.327Z,20.30
2022-12-31T21:56:23.801Z,20.30
2022-12-31T21:59:22.980Z,20.30
2022-12-31T22:02:08.549Z,20.40
2022-12-31T22:05:01.424Z,20.40
2022-12-31T22:07:22.618Z,20.40
2022-12-31T22:09:49.629Z,20.50
2022-12-31T22:12:16.859Z,20.40
2022-12-31T22:15:14.346Z,20.40
2022-12-31T22:17:30.895Z,20.40
2022-12-31T22:20:25.845Z,20.40
2022-12-31T22:22:45.041Z,20.40
2022-12-31T22:25:12.065Z,20.40
2022-12-31T22:27:38.946Z,20.40
2022-12-31T22:30:07.392Z,20.40
2022-12-31T22:32:34.327Z,20.30
2022-12-31T22:35:01.679Z,20.40
2022-12-31T22:37:55.507Z,20.30
2022-12-31T22:40:15.663Z,20.30
2022-12-31T22:42:42.681Z,20.30
2022-12-31T22:45:10.818Z,20.30
2022-12-31T22:47:37.735Z,20.30
2022-12-31T22:50:05.379Z,20.20
2022-12-31T22:52:32.513Z,20.20
2022-12-31T22:54:59.499Z,20.20
2022-12-31T22:57:26.818Z,20.20
2022-12-31T22:59:53.850Z,20.10
2022-12-31T23:02:20.950Z,20.20
2022-12-31T23:04:47.971Z,20.20
2022-12-31T23:07:14.978Z,20.10
2022-12-31T23:10:00.639Z,20.10
2022-12-31T23:12:27.525Z,20.10
2022-12-31T23:15:13.059Z,20.10
2022-12-31T23:17:58.641Z,20.10
2022-12-31T23:20:44.811Z,20.00
2022-12-31T23:23:16.637Z,20.00
2022-12-31T23:25:52.387Z,20.10
2022-12-31T23:28:25.182Z,20.00
2022-12-31T23:30:52.857Z,20.00
2022-12-31T23:33:24.186Z,20.00
2022-12-31T23:36:02.087Z,20.00
2022-12-31T23:38:30.166Z,20.00
2022-12-31T23:40:57.258Z,20.20
2022-12-31T23:43:24.260Z,19.90
2022-12-31T23:45:52.408Z,19.90
2022-12-31T23:48:20.046Z,20.00
2022-12-31T23:50:53.507Z,19.90
2022-12-31T23:53:22.667Z,19.90
2022-12-31T23:55:50.156Z,19.90
2022-12-31T23:58:17.400Z,20.00
